sensor_id;sensor_type;location;lat;lon;timestamp;P1;durP1;ratioP1;P2;durP2;ratioP2
53961;SDS011;39868;53.398;6.564;2023-03-12T00:00:05;13.37;;;4.47;;
53961;SDS011;39868;53.398;6.564;2023-03-12T00:02:36;6.77;;;2.90;;
53961;SDS011;39868;53.398;6.564;2023-03-12T00:05:03;12.90;;;4.40;;
53961;SDS011;39868;53.398;6.564;2023-03-12T00:07:31;19.37;;;7.60;;
53961;SDS011;39868;53.398;6.564;2023-03-12T00:09:59;17.10;;;7.00;;
53961;SDS011;39868;53.398;6.564;2023-03-12T00:12:26;20.67;;;8.43;;
53961;SDS011;39868;53.398;6.564;2023-03-12T00:14:53;25.77;;;8.67;;
53961;SDS011;39868;53.398;6.564;2023-03-12T00:17:21;11.27;;;5.10;;
53961;SDS011;39868;53.398;6.564;2023-03-12T00:19:51;5.53;;;3.77;;
53961;SDS011;39868;53.398;6.564;2023-03-12T00:22:19;8.27;;;4.90;;
53961;SDS011;39868;53.398;6.564;2023-03-12T00:24:50;6.23;;;3.57;;
53961;SDS011;39868;53.398;6.564;2023-03-12T00:27:18;5.87;;;3.17;;
53961;SDS011;39868;53.398;6.564;2023-03-12T00:29:46;4.27;;;2.27;;
53961;SDS011;39868;53.398;6.564;2023-03-12T00:32:13;5.30;;;3.30;;
53961;SDS011;39868;53.398;6.564;2023-03-12T00:34:41;3.50;;;2.43;;
53961;SDS011;39868;53.398;6.564;2023-03-12T00:37:09;5.20;;;2.37;;
53961;SDS011;39868;53.398;6.564;2023-03-12T00:39:36;4.83;;;2.37;;
53961;SDS011;39868;53.398;6.564;2023-03-12T00:42:03;5.40;;;3.20;;
53961;SDS011;39868;53.398;6.564;2023-03-12T00:44:31;11.90;;;5.30;;
53961;SDS011;39868;53.398;6.564;2023-03-12T00:46:58;8.20;;;3.70;;
53961;SDS011;39868;53.398;6.564;2023-03-12T00:49:26;3.93;;;3.00;;
53961;SDS011;39868;53.398;6.564;2023-03-12T00:51:53;4.43;;;2.97;;
53961;SDS011;39868;53.398;6.564;2023-03-12T00:54:21;7.03;;;4.17;;
53961;SDS011;39868;53.398;6.564;2023-03-12T00:56:48;5.50;;;3.37;;
53961;SDS011;39868;53.398;6.564;2023-03-12T00:59:16;5.60;;;3.10;;
53961;SDS011;39868;53.398;6.564;2023-03-12T01:01:43;7.37;;;3.30;;
53961;SDS011;39868;53.398;6.564;2023-03-12T01:04:11;4.30;;;2.80;;
53961;SDS011;39868;53.398;6.564;2023-03-12T01:06:38;5.53;;;2.97;;
53961;SDS011;39868;53.398;6.564;2023-03-12T01:09:06;6.53;;;3.30;;
53961;SDS011;39868;53.398;6.564;2023-03-12T01:11:35;4.00;;;2.60;;
53961;SDS011;39868;53.398;6.564;2023-03-12T01:14:03;5.87;;;2.83;;
53961;SDS011;39868;53.398;6.564;2023-03-12T01:16:31;4.80;;;2.00;;
53961;SDS011;39868;53.398;6.564;2023-03-12T01:19:00;7.90;;;3.10;;
53961;SDS011;39868;53.398;6.564;2023-03-12T01:21:28;3.87;;;2.23;;
53961;SDS011;39868;53.398;6.564;2023-03-12T01:23:56;4.53;;;2.23;;
53961;SDS011;39868;53.398;6.564;2023-03-12T01:26:24;3.50;;;2.63;;
53961;SDS011;39868;53.398;6.564;2023-03-12T01:28:51;5.83;;;2.47;;
53961;SDS011;39868;53.398;6.564;2023-03-12T01:31:18;2.57;;;2.10;;
53961;SDS011;39868;53.398;6.564;2023-03-12T01:33:50;3.43;;;2.23;;
53961;SDS011;39868;53.398;6.564;2023-03-12T01:36:26;3.03;;;2.08;;
53961;SDS011;39868;53.398;6.564;2023-03-12T01:38:56;5.73;;;2.00;;
53961;SDS011;39868;53.398;6.564;2023-03-12T01:41:26;2.77;;;2.57;;
53961;SDS011;39868;53.398;6.564;2023-03-12T01:43:55;3.67;;;2.60;;
53961;SDS011;39868;53.398;6.564;2023-03-12T01:46:25;5.33;;;2.30;;
53961;SDS011;39868;53.398;6.564;2023-03-12T01:48:57;3.17;;;2.63;;
53961;SDS011;39868;53.398;6.564;2023-03-12T01:54:32;3.57;;;2.53;;
53961;SDS011;39868;53.398;6.564;2023-03-12T01:57:09;5.07;;;2.30;;
53961;SDS011;39868;53.398;6.564;2023-03-12T01:59:46;4.87;;;2.23;;
53961;SDS011;39868;53.398;6.564;2023-03-12T02:02:17;3.67;;;2.07;;
53961;SDS011;39868;53.398;6.564;2023-03-12T02:04:55;7.23;;;2.37;;
53961;SDS011;39868;53.398;6.564;2023-03-12T02:07:39;6.80;;;1.87;;
53961;SDS011;39868;53.398;6.564;2023-03-12T02:10:07;3.53;;;2.00;;
53961;SDS011;39868;53.398;6.564;2023-03-12T02:12:35;2.97;;;1.90;;
53961;SDS011;39868;53.398;6.564;2023-03-12T02:15:02;3.40;;;1.80;;
53961;SDS011;39868;53.398;6.564;2023-03-12T02:17:30;4.27;;;2.07;;
53961;SDS011;39868;53.398;6.564;2023-03-12T02:19:59;4.37;;;2.50;;
53961;SDS011;39868;53.398;6.564;2023-03-12T02:22:36;4.27;;;2.47;;
53961;SDS011;39868;53.398;6.564;2023-03-12T02:25:19;3.50;;;2.17;;
53961;SDS011;39868;53.398;6.564;2023-03-12T02:27:53;3.63;;;2.37;;
53961;SDS011;39868;53.398;6.564;2023-03-12T02:30:25;3.07;;;2.27;;
53961;SDS011;39868;53.398;6.564;2023-03-12T02:32:57;4.47;;;2.37;;
53961;SDS011;39868;53.398;6.564;2023-03-12T02:35:27;2.85;;;2.38;;
53961;SDS011;39868;53.398;6.564;2023-03-12T02:37:55;4.97;;;2.33;;
53961;SDS011;39868;53.398;6.564;2023-03-12T02:40:39;2.83;;;2.27;;
53961;SDS011;39868;53.398;6.564;2023-03-12T02:43:11;3.47;;;2.50;;
53961;SDS011;39868;53.398;6.564;2023-03-12T02:45:40;2.57;;;2.30;;
53961;SDS011;39868;53.398;6.564;2023-03-12T02:48:08;2.17;;;1.90;;
53961;SDS011;39868;53.398;6.564;2023-03-12T02:50:35;6.73;;;2.40;;
53961;SDS011;39868;53.398;6.564;2023-03-12T02:53:03;3.23;;;2.30;;
53961;SDS011;39868;53.398;6.564;2023-03-12T02:55:31;4.60;;;2.33;;
53961;SDS011;39868;53.398;6.564;2023-03-12T02:57:58;2.87;;;1.87;;
53961;SDS011;39868;53.398;6.564;2023-03-12T03:00:28;2.60;;;1.97;;
53961;SDS011;39868;53.398;6.564;2023-03-12T03:02:58;3.23;;;1.90;;
53961;SDS011;39868;53.398;6.564;2023-03-12T03:05:26;3.00;;;2.20;;
53961;SDS011;39868;53.398;6.564;2023-03-12T03:07:54;1.70;;;1.40;;
53961;SDS011;39868;53.398;6.564;2023-03-12T03:10:21;4.07;;;2.30;;
53961;SDS011;39868;53.398;6.564;2023-03-12T03:12:48;3.27;;;2.37;;
53961;SDS011;39868;53.398;6.564;2023-03-12T03:15:17;4.30;;;2.10;;
53961;SDS011;39868;53.398;6.564;2023-03-12T03:17:44;3.33;;;2.30;;
53961;SDS011;39868;53.398;6.564;2023-03-12T03:20:12;3.87;;;2.13;;
53961;SDS011;39868;53.398;6.564;2023-03-12T03:22:39;3.47;;;2.83;;
53961;SDS011;39868;53.398;6.564;2023-03-12T03:25:07;4.90;;;2.53;;
53961;SDS011;39868;53.398;6.564;2023-03-12T03:27:36;2.70;;;2.00;;
53961;SDS011;39868;53.398;6.564;2023-03-12T03:30:03;4.87;;;2.70;;
53961;SDS011;39868;53.398;6.564;2023-03-12T03:32:36;2.90;;;2.25;;
53961;SDS011;39868;53.398;6.564;2023-03-12T03:35:04;3.53;;;2.03;;
53961;SDS011;39868;53.398;6.564;2023-03-12T03:37:32;4.13;;;2.23;;
53961;SDS011;39868;53.398;6.564;2023-03-12T03:39:59;7.00;;;2.17;;
53961;SDS011;39868;53.398;6.564;2023-03-12T03:42:27;4.20;;;2.10;;
53961;SDS011;39868;53.398;6.564;2023-03-12T03:44:54;2.50;;;1.90;;
53961;SDS011;39868;53.398;6.564;2023-03-12T03:47:22;6.70;;;2.30;;
53961;SDS011;39868;53.398;6.564;2023-03-12T03:49:49;4.73;;;2.43;;
53961;SDS011;39868;53.398;6.564;2023-03-12T03:52:16;5.10;;;2.50;;
53961;SDS011;39868;53.398;6.564;2023-03-12T03:54:44;2.30;;;1.93;;
53961;SDS011;39868;53.398;6.564;2023-03-12T03:57:11;3.23;;;2.40;;
53961;SDS011;39868;53.398;6.564;2023-03-12T03:59:38;4.37;;;2.80;;
53961;SDS011;39868;53.398;6.564;2023-03-12T04:02:06;3.30;;;2.30;;
53961;SDS011;39868;53.398;6.564;2023-03-12T04:04:36;4.23;;;2.50;;
53961;SDS011;39868;53.398;6.564;2023-03-12T04:07:05;3.93;;;2.47;;
53961;SDS011;39868;53.398;6.564;2023-03-12T04:09:32;3.77;;;2.63;;
53961;SDS011;39868;53.398;6.564;2023-03-12T04:12:00;3.40;;;2.13;;
53961;SDS011;39868;53.398;6.564;2023-03-12T04:14:28;4.57;;;2.40;;
53961;SDS011;39868;53.398;6.564;2023-03-12T04:16:56;5.50;;;2.37;;
53961;SDS011;39868;53.398;6.564;2023-03-12T04:19:23;5.83;;;2.57;;
53961;SDS011;39868;53.398;6.564;2023-03-12T04:21:51;3.17;;;2.10;;
53961;SDS011;39868;53.398;6.564;2023-03-12T04:24:19;3.97;;;2.47;;
53961;SDS011;39868;53.398;6.564;2023-03-12T04:26:47;3.53;;;2.60;;
53961;SDS011;39868;53.398;6.564;2023-03-12T04:29:15;3.57;;;2.60;;
53961;SDS011;39868;53.398;6.564;2023-03-12T04:31:42;8.47;;;2.60;;
53961;SDS011;39868;53.398;6.564;2023-03-12T04:34:10;3.33;;;1.97;;
53961;SDS011;39868;53.398;6.564;2023-03-12T04:36:42;2.97;;;2.30;;
53961;SDS011;39868;53.398;6.564;2023-03-12T04:39:11;2.50;;;1.90;;
53961;SDS011;39868;53.398;6.564;2023-03-12T04:41:39;3.23;;;2.03;;
53961;SDS011;39868;53.398;6.564;2023-03-12T04:44:09;3.07;;;1.87;;
53961;SDS011;39868;53.398;6.564;2023-03-12T04:46:39;4.30;;;2.43;;
53961;SDS011;39868;53.398;6.564;2023-03-12T04:49:10;3.87;;;2.13;;
53961;SDS011;39868;53.398;6.564;2023-03-12T04:51:39;6.73;;;2.70;;
53961;SDS011;39868;53.398;6.564;2023-03-12T04:54:07;3.27;;;2.27;;
53961;SDS011;39868;53.398;6.564;2023-03-12T04:56:35;5.03;;;2.33;;
53961;SDS011;39868;53.398;6.564;2023-03-12T04:59:04;2.20;;;1.97;;
53961;SDS011;39868;53.398;6.564;2023-03-12T05:01:32;2.37;;;1.90;;
53961;SDS011;39868;53.398;6.564;2023-03-12T05:04:06;3.83;;;2.20;;
53961;SDS011;39868;53.398;6.564;2023-03-12T05:06:34;3.00;;;1.80;;
53961;SDS011;39868;53.398;6.564;2023-03-12T05:09:02;5.00;;;2.60;;
53961;SDS011;39868;53.398;6.564;2023-03-12T05:11:30;3.20;;;2.23;;
53961;SDS011;39868;53.398;6.564;2023-03-12T05:13:57;3.27;;;1.97;;
53961;SDS011;39868;53.398;6.564;2023-03-12T05:16:25;2.70;;;2.13;;
53961;SDS011;39868;53.398;6.564;2023-03-12T05:18:54;4.47;;;2.27;;
53961;SDS011;39868;53.398;6.564;2023-03-12T05:21:23;3.10;;;2.10;;
53961;SDS011;39868;53.398;6.564;2023-03-12T05:23:53;4.30;;;2.53;;
53961;SDS011;39868;53.398;6.564;2023-03-12T05:26:24;4.67;;;2.27;;
53961;SDS011;39868;53.398;6.564;2023-03-12T05:29:01;2.60;;;2.10;;
53961;SDS011;39868;53.398;6.564;2023-03-12T05:31:30;3.20;;;2.03;;
53961;SDS011;39868;53.398;6.564;2023-03-12T05:34:03;4.57;;;2.40;;
53961;SDS011;39868;53.398;6.564;2023-03-12T05:36:33;3.70;;;2.23;;
53961;SDS011;39868;53.398;6.564;2023-03-12T05:39:01;2.67;;;2.00;;
53961;SDS011;39868;53.398;6.564;2023-03-12T05:41:31;3.93;;;2.13;;
53961;SDS011;39868;53.398;6.564;2023-03-12T05:44:04;2.83;;;1.87;;
53961;SDS011;39868;53.398;6.564;2023-03-12T05:46:33;3.90;;;1.87;;
53961;SDS011;39868;53.398;6.564;2023-03-12T05:49:01;4.83;;;2.40;;
53961;SDS011;39868;53.398;6.564;2023-03-12T05:51:30;5.23;;;3.07;;
53961;SDS011;39868;53.398;6.564;2023-03-12T05:54:01;3.83;;;2.53;;
53961;SDS011;39868;53.398;6.564;2023-03-12T05:56:29;4.13;;;2.67;;
53961;SDS011;39868;53.398;6.564;2023-03-12T05:58:57;3.37;;;2.10;;
53961;SDS011;39868;53.398;6.564;2023-03-12T06:01:26;4.07;;;2.47;;
53961;SDS011;39868;53.398;6.564;2023-03-12T06:03:56;3.05;;;2.50;;
53961;SDS011;39868;53.398;6.564;2023-03-12T06:06:24;3.23;;;2.37;;
53961;SDS011;39868;53.398;6.564;2023-03-12T06:08:52;4.37;;;2.33;;
53961;SDS011;39868;53.398;6.564;2023-03-12T06:11:20;4.30;;;2.40;;
53961;SDS011;39868;53.398;6.564;2023-03-12T06:13:47;3.47;;;2.20;;
53961;SDS011;39868;53.398;6.564;2023-03-12T06:16:19;5.10;;;3.00;;
53961;SDS011;39868;53.398;6.564;2023-03-12T06:18:51;3.40;;;2.43;;
53961;SDS011;39868;53.398;6.564;2023-03-12T06:21:21;8.10;;;2.47;;
53961;SDS011;39868;53.398;6.564;2023-03-12T06:23:50;3.40;;;2.50;;
53961;SDS011;39868;53.398;6.564;2023-03-12T06:26:25;3.23;;;2.43;;
53961;SDS011;39868;53.398;6.564;2023-03-12T06:28:53;4.33;;;2.50;;
53961;SDS011;39868;53.398;6.564;2023-03-12T06:31:21;5.00;;;2.43;;
53961;SDS011;39868;53.398;6.564;2023-03-12T06:33:49;2.77;;;2.50;;
53961;SDS011;39868;53.398;6.564;2023-03-12T06:36:17;2.47;;;2.27;;
53961;SDS011;39868;53.398;6.564;2023-03-12T06:38:44;3.20;;;2.70;;
53961;SDS011;39868;53.398;6.564;2023-03-12T06:41:12;3.57;;;2.50;;
53961;SDS011;39868;53.398;6.564;2023-03-12T06:43:42;3.93;;;3.03;;
53961;SDS011;39868;53.398;6.564;2023-03-12T06:46:11;3.20;;;2.37;;
53961;SDS011;39868;53.398;6.564;2023-03-12T06:48:41;3.33;;;2.60;;
53961;SDS011;39868;53.398;6.564;2023-03-12T06:51:09;4.80;;;2.67;;
53961;SDS011;39868;53.398;6.564;2023-03-12T06:53:41;4.32;;;2.63;;
53961;SDS011;39868;53.398;6.564;2023-03-12T06:56:09;4.17;;;2.90;;
53961;SDS011;39868;53.398;6.564;2023-03-12T06:58:37;4.30;;;2.30;;
53961;SDS011;39868;53.398;6.564;2023-03-12T07:01:05;4.73;;;2.67;;
53961;SDS011;39868;53.398;6.564;2023-03-12T07:03:33;4.67;;;2.90;;
53961;SDS011;39868;53.398;6.564;2023-03-12T07:06:00;3.60;;;2.63;;
53961;SDS011;39868;53.398;6.564;2023-03-12T07:08:28;3.00;;;2.60;;
53961;SDS011;39868;53.398;6.564;2023-03-12T07:10:56;3.57;;;2.67;;
53961;SDS011;39868;53.398;6.564;2023-03-12T07:13:27;3.87;;;2.53;;
53961;SDS011;39868;53.398;6.564;2023-03-12T07:15:55;5.03;;;3.33;;
53961;SDS011;39868;53.398;6.564;2023-03-12T07:18:23;4.27;;;3.23;;
53961;SDS011;39868;53.398;6.564;2023-03-12T07:20:50;5.77;;;3.33;;
53961;SDS011;39868;53.398;6.564;2023-03-12T07:23:18;3.83;;;2.97;;
53961;SDS011;39868;53.398;6.564;2023-03-12T07:25:45;4.77;;;2.80;;
53961;SDS011;39868;53.398;6.564;2023-03-12T07:28:14;7.00;;;3.73;;
53961;SDS011;39868;53.398;6.564;2023-03-12T07:30:41;4.93;;;2.73;;
53961;SDS011;39868;53.398;6.564;2023-03-12T07:33:19;5.53;;;3.67;;
53961;SDS011;39868;53.398;6.564;2023-03-12T07:35:47;4.80;;;3.67;;
53961;SDS011;39868;53.398;6.564;2023-03-12T07:38:17;4.13;;;3.03;;
53961;SDS011;39868;53.398;6.564;2023-03-12T07:40:55;5.40;;;3.70;;
53961;SDS011;39868;53.398;6.564;2023-03-12T07:43:23;5.67;;;3.53;;
53961;SDS011;39868;53.398;6.564;2023-03-12T07:45:52;8.63;;;3.97;;
53961;SDS011;39868;53.398;6.564;2023-03-12T07:48:21;6.67;;;4.00;;
53961;SDS011;39868;53.398;6.564;2023-03-12T07:50:48;5.93;;;3.47;;
53961;SDS011;39868;53.398;6.564;2023-03-12T07:53:16;6.03;;;3.70;;
53961;SDS011;39868;53.398;6.564;2023-03-12T07:55:44;4.87;;;3.90;;
53961;SDS011;39868;53.398;6.564;2023-03-12T07:58:14;6.57;;;3.93;;
53961;SDS011;39868;53.398;6.564;2023-03-12T08:00:42;8.87;;;4.13;;
53961;SDS011;39868;53.398;6.564;2023-03-12T08:03:10;7.13;;;3.80;;
53961;SDS011;39868;53.398;6.564;2023-03-12T08:05:39;10.13;;;4.13;;
53961;SDS011;39868;53.398;6.564;2023-03-12T08:08:06;7.77;;;3.80;;
53961;SDS011;39868;53.398;6.564;2023-03-12T08:10:34;5.23;;;3.77;;
53961;SDS011;39868;53.398;6.564;2023-03-12T08:13:02;5.57;;;3.80;;
53961;SDS011;39868;53.398;6.564;2023-03-12T08:15:30;7.10;;;4.20;;
53961;SDS011;39868;53.398;6.564;2023-03-12T08:17:57;4.40;;;3.70;;
53961;SDS011;39868;53.398;6.564;2023-03-12T08:20:25;6.30;;;4.50;;
53961;SDS011;39868;53.398;6.564;2023-03-12T08:22:52;6.00;;;4.07;;
53961;SDS011;39868;53.398;6.564;2023-03-12T08:25:19;4.47;;;3.50;;
53961;SDS011;39868;53.398;6.564;2023-03-12T08:27:50;8.07;;;4.60;;
53961;SDS011;39868;53.398;6.564;2023-03-12T08:30:17;7.23;;;4.23;;
53961;SDS011;39868;53.398;6.564;2023-03-12T08:32:45;7.27;;;4.17;;
53961;SDS011;39868;53.398;6.564;2023-03-12T08:35:12;7.30;;;4.00;;
53961;SDS011;39868;53.398;6.564;2023-03-12T08:37:40;7.03;;;4.10;;
53961;SDS011;39868;53.398;6.564;2023-03-12T08:40:08;6.70;;;4.90;;
53961;SDS011;39868;53.398;6.564;2023-03-12T08:42:42;6.57;;;4.10;;
53961;SDS011;39868;53.398;6.564;2023-03-12T08:45:10;6.67;;;4.93;;
53961;SDS011;39868;53.398;6.564;2023-03-12T08:47:38;7.63;;;4.83;;
53961;SDS011;39868;53.398;6.564;2023-03-12T08:50:07;7.37;;;4.57;;
53961;SDS011;39868;53.398;6.564;2023-03-12T08:52:37;8.13;;;4.63;;
53961;SDS011;39868;53.398;6.564;2023-03-12T08:55:05;7.30;;;4.40;;
53961;SDS011;39868;53.398;6.564;2023-03-12T08:57:33;6.60;;;4.53;;
53961;SDS011;39868;53.398;6.564;2023-03-12T09:00:00;8.27;;;4.90;;
53961;SDS011;39868;53.398;6.564;2023-03-12T09:02:30;7.23;;;5.10;;
53961;SDS011;39868;53.398;6.564;2023-03-12T09:04:57;9.00;;;4.43;;
53961;SDS011;39868;53.398;6.564;2023-03-12T09:07:25;10.00;;;4.33;;
53961;SDS011;39868;53.398;6.564;2023-03-12T09:09:53;10.20;;;5.07;;
53961;SDS011;39868;53.398;6.564;2023-03-12T09:12:21;8.77;;;4.97;;
53961;SDS011;39868;53.398;6.564;2023-03-12T09:14:49;5.87;;;4.47;;
53961;SDS011;39868;53.398;6.564;2023-03-12T09:17:29;8.83;;;6.00;;
53961;SDS011;39868;53.398;6.564;2023-03-12T09:19:56;7.80;;;5.00;;
53961;SDS011;39868;53.398;6.564;2023-03-12T09:22:23;9.23;;;5.63;;
53961;SDS011;39868;53.398;6.564;2023-03-12T09:24:51;10.13;;;6.67;;
53961;SDS011;39868;53.398;6.564;2023-03-12T09:27:19;7.83;;;5.33;;
53961;SDS011;39868;53.398;6.564;2023-03-12T09:29:46;6.03;;;4.13;;
53961;SDS011;39868;53.398;6.564;2023-03-12T09:32:26;6.80;;;5.03;;
53961;SDS011;39868;53.398;6.564;2023-03-12T09:34:54;9.07;;;5.90;;
53961;SDS011;39868;53.398;6.564;2023-03-12T09:37:21;6.73;;;5.10;;
53961;SDS011;39868;53.398;6.564;2023-03-12T09:39:50;9.53;;;5.37;;
53961;SDS011;39868;53.398;6.564;2023-03-12T09:42:22;6.87;;;5.70;;
53961;SDS011;39868;53.398;6.564;2023-03-12T09:44:53;7.43;;;5.13;;
53961;SDS011;39868;53.398;6.564;2023-03-12T09:47:34;7.00;;;4.73;;
53961;SDS011;39868;53.398;6.564;2023-03-12T09:55:34;8.03;;;5.03;;
53961;SDS011;39868;53.398;6.564;2023-03-12T09:58:48;8.73;;;5.17;;
53961;SDS011;39868;53.398;6.564;2023-03-12T10:06:46;8.90;;;5.33;;
53961;SDS011;39868;53.398;6.564;2023-03-12T10:09:28;8.57;;;5.67;;
53961;SDS011;39868;53.398;6.564;2023-03-12T10:16:07;7.93;;;5.10;;
53961;SDS011;39868;53.398;6.564;2023-03-12T10:18:37;12.27;;;5.55;;
53961;SDS011;39868;53.398;6.564;2023-03-12T10:21:34;7.90;;;5.57;;
53961;SDS011;39868;53.398;6.564;2023-03-12T10:24:16;7.07;;;4.10;;
53961;SDS011;39868;53.398;6.564;2023-03-12T10:26:58;6.80;;;4.87;;
53961;SDS011;39868;53.398;6.564;2023-03-12T10:29:34;6.43;;;5.03;;
53961;SDS011;39868;53.398;6.564;2023-03-12T10:32:15;9.33;;;5.23;;
53961;SDS011;39868;53.398;6.564;2023-03-12T10:34:51;7.53;;;4.88;;
53961;SDS011;39868;53.398;6.564;2023-03-12T10:37:30;5.73;;;3.87;;
53961;SDS011;39868;53.398;6.564;2023-03-12T10:40:03;6.97;;;4.40;;
53961;SDS011;39868;53.398;6.564;2023-03-12T10:42:31;7.43;;;4.50;;
53961;SDS011;39868;53.398;6.564;2023-03-12T10:45:43;5.77;;;4.33;;
53961;SDS011;39868;53.398;6.564;2023-03-12T10:48:24;6.40;;;4.68;;
53961;SDS011;39868;53.398;6.564;2023-03-12T10:51:05;6.10;;;4.50;;
53961;SDS011;39868;53.398;6.564;2023-03-12T10:53:34;4.33;;;3.93;;
53961;SDS011;39868;53.398;6.564;2023-03-12T10:56:07;7.30;;;4.60;;
53961;SDS011;39868;53.398;6.564;2023-03-12T10:58:40;6.63;;;3.97;;
53961;SDS011;39868;53.398;6.564;2023-03-12T11:01:23;6.97;;;4.17;;
53961;SDS011;39868;53.398;6.564;2023-03-12T11:03:53;6.15;;;4.20;;
53961;SDS011;39868;53.398;6.564;2023-03-12T11:06:39;4.57;;;4.10;;
53961;SDS011;39868;53.398;6.564;2023-03-12T11:09:17;7.87;;;4.57;;
53961;SDS011;39868;53.398;6.564;2023-03-12T11:11:45;4.20;;;3.80;;
53961;SDS011;39868;53.398;6.564;2023-03-12T11:14:15;6.70;;;4.40;;
53961;SDS011;39868;53.398;6.564;2023-03-12T11:16:48;7.77;;;5.07;;
53961;SDS011;39868;53.398;6.564;2023-03-12T11:19:27;5.57;;;4.57;;
53961;SDS011;39868;53.398;6.564;2023-03-12T11:21:59;5.88;;;4.20;;
53961;SDS011;39868;53.398;6.564;2023-03-12T11:24:33;9.07;;;4.17;;
53961;SDS011;39868;53.398;6.564;2023-03-12T11:27:05;6.67;;;4.67;;
53961;SDS011;39868;53.398;6.564;2023-03-12T11:29:47;5.70;;;4.30;;
53961;SDS011;39868;53.398;6.564;2023-03-12T11:32:23;5.00;;;4.17;;
53961;SDS011;39868;53.398;6.564;2023-03-12T11:34:57;4.97;;;3.77;;
53961;SDS011;39868;53.398;6.564;2023-03-12T11:37:41;5.53;;;4.40;;
53961;SDS011;39868;53.398;6.564;2023-03-12T11:43:19;8.17;;;4.53;;
53961;SDS011;39868;53.398;6.564;2023-03-12T11:46:15;6.83;;;4.23;;
53961;SDS011;39868;53.398;6.564;2023-03-12T12:13:29;5.37;;;4.07;;
53961;SDS011;39868;53.398;6.564;2023-03-12T12:24:46;8.33;;;4.50;;
53961;SDS011;39868;53.398;6.564;2023-03-12T12:27:38;7.40;;;4.40;;
53961;SDS011;39868;53.398;6.564;2023-03-12T12:33:19;6.90;;;4.40;;
53961;SDS011;39868;53.398;6.564;2023-03-12T12:35:52;6.30;;;4.10;;
53961;SDS011;39868;53.398;6.564;2023-03-12T12:41:18;7.37;;;4.67;;
53961;SDS011;39868;53.398;6.564;2023-03-12T12:46:41;7.43;;;3.90;;
53961;SDS011;39868;53.398;6.564;2023-03-12T12:49:22;7.37;;;4.40;;
53961;SDS011;39868;53.398;6.564;2023-03-12T12:52:09;5.93;;;4.80;;
53961;SDS011;39868;53.398;6.564;2023-03-12T12:54:52;6.05;;;4.10;;
53961;SDS011;39868;53.398;6.564;2023-03-12T12:57:52;7.60;;;4.10;;
53961;SDS011;39868;53.398;6.564;2023-03-12T13:00:38;8.17;;;4.50;;
53961;SDS011;39868;53.398;6.564;2023-03-12T13:03:15;6.70;;;4.30;;
53961;SDS011;39868;53.398;6.564;2023-03-12T13:06:07;7.93;;;4.33;;
53961;SDS011;39868;53.398;6.564;2023-03-12T13:09:21;7.23;;;4.13;;
53961;SDS011;39868;53.398;6.564;2023-03-12T13:11:23;7.30;;;4.53;;
53961;SDS011;39868;53.398;6.564;2023-03-12T13:16:35;9.33;;;3.57;;
53961;SDS011;39868;53.398;6.564;2023-03-12T13:24:30;7.93;;;4.17;;
53961;SDS011;39868;53.398;6.564;2023-03-12T13:27:14;7.78;;;4.15;;
53961;SDS011;39868;53.398;6.564;2023-03-12T13:29:47;7.03;;;4.40;;
53961;SDS011;39868;53.398;6.564;2023-03-12T13:48:21;8.77;;;4.38;;
53961;SDS011;39868;53.398;6.564;2023-03-12T13:50:52;9.00;;;4.55;;
53961;SDS011;39868;53.398;6.564;2023-03-12T13:53:25;11.75;;;4.63;;
53961;SDS011;39868;53.398;6.564;2023-03-12T13:56:08;7.25;;;4.07;;
53961;SDS011;39868;53.398;6.564;2023-03-12T13:58:40;14.32;;;4.93;;
53961;SDS011;39868;53.398;6.564;2023-03-12T14:01:16;11.32;;;4.28;;
53961;SDS011;39868;53.398;6.564;2023-03-12T14:03:49;12.07;;;4.18;;
53961;SDS011;39868;53.398;6.564;2023-03-12T14:06:21;9.27;;;4.65;;
53961;SDS011;39868;53.398;6.564;2023-03-12T14:17:15;7.43;;;3.67;;
53961;SDS011;39868;53.398;6.564;2023-03-12T14:19:47;13.32;;;4.32;;
53961;SDS011;39868;53.398;6.564;2023-03-12T14:22:22;16.42;;;5.05;;
53961;SDS011;39868;53.398;6.564;2023-03-12T14:24:52;9.55;;;3.83;;
53961;SDS011;39868;53.398;6.564;2023-03-12T14:30:00;8.90;;;4.07;;
53961;SDS011;39868;53.398;6.564;2023-03-12T14:32:38;21.90;;;5.55;;
53961;SDS011;39868;53.398;6.564;2023-03-12T14:37:39;11.57;;;3.97;;
53961;SDS011;39868;53.398;6.564;2023-03-12T14:40:22;8.90;;;4.13;;
53961;SDS011;39868;53.398;6.564;2023-03-12T14:42:50;9.95;;;3.38;;
53961;SDS011;39868;53.398;6.564;2023-03-12T14:45:19;10.30;;;3.72;;
53961;SDS011;39868;53.398;6.564;2023-03-12T14:47:52;12.00;;;4.30;;
53961;SDS011;39868;53.398;6.564;2023-03-12T14:50:26;10.20;;;4.05;;
53961;SDS011;39868;53.398;6.564;2023-03-12T14:53:10;18.63;;;4.75;;
53961;SDS011;39868;53.398;6.564;2023-03-12T14:55:39;13.60;;;4.32;;
53961;SDS011;39868;53.398;6.564;2023-03-12T14:58:14;20.08;;;4.35;;
53961;SDS011;39868;53.398;6.564;2023-03-12T15:00:44;12.73;;;4.38;;
53961;SDS011;39868;53.398;6.564;2023-03-12T15:03:23;10.75;;;4.70;;
53961;SDS011;39868;53.398;6.564;2023-03-12T15:05:52;14.82;;;4.25;;
53961;SDS011;39868;53.398;6.564;2023-03-12T15:08:20;16.35;;;3.85;;
53961;SDS011;39868;53.398;6.564;2023-03-12T15:10:49;10.90;;;3.97;;
53961;SDS011;39868;53.398;6.564;2023-03-12T15:13:19;12.30;;;3.67;;
53961;SDS011;39868;53.398;6.564;2023-03-12T15:15:50;12.75;;;4.15;;
53961;SDS011;39868;53.398;6.564;2023-03-12T15:18:21;13.63;;;3.80;;
53961;SDS011;39868;53.398;6.564;2023-03-12T15:21:00;17.13;;;4.20;;
53961;SDS011;39868;53.398;6.564;2023-03-12T15:23:29;14.23;;;3.97;;
53961;SDS011;39868;53.398;6.564;2023-03-12T15:26:12;12.55;;;3.45;;
53961;SDS011;39868;53.398;6.564;2023-03-12T15:29:15;18.73;;;4.32;;
53961;SDS011;39868;53.398;6.564;2023-03-12T15:31:59;16.50;;;3.90;;
53961;SDS011;39868;53.398;6.564;2023-03-12T15:34:28;14.00;;;3.35;;
53961;SDS011;39868;53.398;6.564;2023-03-12T15:40:06;13.02;;;3.72;;
53961;SDS011;39868;53.398;6.564;2023-03-12T15:42:54;9.27;;;3.63;;
53961;SDS011;39868;53.398;6.564;2023-03-12T15:48:13;14.48;;;4.07;;
53961;SDS011;39868;53.398;6.564;2023-03-12T15:50:56;8.35;;;3.00;;
53961;SDS011;39868;53.398;6.564;2023-03-12T15:53:25;12.50;;;3.35;;
53961;SDS011;39868;53.398;6.564;2023-03-12T15:56:01;15.43;;;3.40;;
53961;SDS011;39868;53.398;6.564;2023-03-12T15:58:36;12.65;;;4.20;;
53961;SDS011;39868;53.398;6.564;2023-03-12T16:03:41;10.27;;;3.80;;
53961;SDS011;39868;53.398;6.564;2023-03-12T16:06:14;16.77;;;4.03;;
53961;SDS011;39868;53.398;6.564;2023-03-12T16:08:45;24.13;;;4.00;;
53961;SDS011;39868;53.398;6.564;2023-03-12T16:11:18;16.38;;;3.80;;
53961;SDS011;39868;53.398;6.564;2023-03-12T16:13:49;15.20;;;3.88;;
53961;SDS011;39868;53.398;6.564;2023-03-12T16:16:21;15.48;;;3.78;;
53961;SDS011;39868;53.398;6.564;2023-03-12T16:18:48;14.90;;;5.40;;
53961;SDS011;39868;53.398;6.564;2023-03-12T16:21:16;14.98;;;4.18;;
53961;SDS011;39868;53.398;6.564;2023-03-12T16:23:43;20.92;;;5.07;;
53961;SDS011;39868;53.398;6.564;2023-03-12T16:26:11;14.63;;;2.85;;
53961;SDS011;39868;53.398;6.564;2023-03-12T16:28:40;12.68;;;4.07;;
53961;SDS011;39868;53.398;6.564;2023-03-12T16:31:11;14.23;;;4.05;;
53961;SDS011;39868;53.398;6.564;2023-03-12T16:33:41;20.38;;;4.78;;
53961;SDS011;39868;53.398;6.564;2023-03-12T16:36:12;15.23;;;3.90;;
53961;SDS011;39868;53.398;6.564;2023-03-12T16:38:42;16.37;;;4.17;;
53961;SDS011;39868;53.398;6.564;2023-03-12T16:41:13;10.75;;;3.92;;
53961;SDS011;39868;53.398;6.564;2023-03-12T16:43:45;11.40;;;3.95;;
53961;SDS011;39868;53.398;6.564;2023-03-12T16:46:20;11.18;;;3.97;;
53961;SDS011;39868;53.398;6.564;2023-03-12T16:48:49;12.20;;;4.38;;
53961;SDS011;39868;53.398;6.564;2023-03-12T16:51:19;13.90;;;4.10;;
53961;SDS011;39868;53.398;6.564;2023-03-12T16:53:46;12.70;;;3.53;;
53961;SDS011;39868;53.398;6.564;2023-03-12T16:56:32;16.67;;;3.58;;
53961;SDS011;39868;53.398;6.564;2023-03-12T16:59:02;14.00;;;4.00;;